Terminal Aerodrome Forecast
Issued by NWS Wakefield, VA

Home | Current Version | Previous Version | Text Only | Print | Product List | Glossary On
Versions: 1 2 3 4 5 6 7 8 9 10 11 12 13 14
000
FTUS41 KAKQ 261729
TAFSBY
TAF
KSBY 261729Z 2618/2718 20012G20KT 5SM -SHRA SCT015 BKN025
      TEMPO 2618/2619 19020G30KT 2SM SHRA OVC015
     FM262000 20011KT P6SM BKN025 BKN100 BKN250
     FM262300 22010KT P6SM BKN250
     FM270600 32012G20KT P6SM -RA OVC015
     FM271100 35010KT 5SM -RA BR OVC015=

USA.gov is the U.S. government's official web portal to all federal, state and local government web resources and services.